Aérodrome :
LOGIN :

S'inscrire | Disclaimer

   EN    FR    IT 

 










Légende :    VFR   VFR Marginal   IFR   IFR Intensif   IFR Très Intensif
Visi : 
Plafond : 
>= 8 km
>= 3000ft
5 à 8 km
1000 à 3000 ft
1500m à 5 km
500 à 1000 ft
800 à 1500m
200 à 500 ft
< 800m
< 200 ft
Symboles :   Orages  Brouillard  Fortes neiges  Fortes précipitations  Vent > 20 kt
SIGMETs :   Divers  Orages  Givrage  Turbulence  Onde Orograph.  Cendres Volcan.







- Altitude de l'aérodrome : 876 ft
- Code IATA : MBX


LJMB - Maribor

DERNIER METAR :
  • 210300Z AUTO 16001KT 7000 OVC026/// M01/M03 Q1020

METARs EXPIRÉS :
  • 210230Z AUTO 14001KT 8000 OVC026/// M01/M03 Q1020
  • 210200Z AUTO 00000KT 8000 OVC026/// M01/M03 Q1020
  • 210130Z AUTO 01001KT 7000 OVC026/// M01/M02 Q1020
  • 210100Z AUTO 01002KT 7000 OVC025/// M01/M02 Q1019
  • 210030Z AUTO 36003KT 7000 OVC026/// M01/M03 Q1019
  • 210000Z AUTO 35003KT 8000 OVC026/// M01/M02 Q1019

TAF TAF LJMB
Valide du 21 à 03h jusqu'au 22 à 03h UTC


210200Z 2103/2203 35003KT CAVOK
TEMPO 2103/2112 7000 BKN030
PROB40
TEMPO 2103/2109 OVC017
BECMG 2111/2113 05004KT
BECMG 2116/2118 36003KT
TEMPO 2117/2203 BKN027
Pas de NOTAMs connus pour ce terrain.



MET'MAP, la Météo Aéronautique d'un coup d'oeil ! - Copyright ORBIFLY Décembre 2007 - Disclaimer

ORBIFLY MET'MAP TEAM :

Programmation & Développement : Alexandra Zaïnal
Conception & Développement : Baudouin d'Aumeries
Co-Programmation & Développement : Marc-Olivier Méhu
Soutien technique & logistique : Manuel Goepfert

Contact : metmap@orbifly.com




SOURCES & CREDITS :

   NOAA